Terminal Aerodrome Forecast
Issued by NWS Binghamton, NY

Home | Current Version | Previous Version | Text Only | Print | Product List | Glossary On
Versions: 1 2 3 4 5 6 7 8 9 10 11 12 13 14 15 16 17
000
FTUS41 KBGM 300500
TAFSYR
TAF
KSYR 300535Z 3006/3106 22010KT 3SM -SHSN SCT008 OVC015
      TEMPO 3006/3009 1 1/2SM -SHSN OVC008
     FM300900 29012G22KT 2SM -SHSN OVC012
     FM301300 31015G28KT 3SM -SHSN OVC015
      TEMPO 3013/3015 2SM -SHSN
     FM310000 31012G22KT P6SM -SHSN BKN025=

USA.gov is the U.S. government's official web portal to all federal, state and local government web resources and services.